sensor_id;sensor_type;location;lat;lon;timestamp;pressure;altitude;pressure_sealevel;temperature;humidity
51249;BME280;39642;47.556;18.728;2022-08-03T00:00:04;99728.69;;;26.18;38.72
51249;BME280;39642;47.556;18.728;2022-08-03T00:02:30;99723.34;;;26.18;38.68
51249;BME280;39642;47.556;18.728;2022-08-03T00:04:56;99726.00;;;26.18;38.71
51249;BME280;39642;47.556;18.728;2022-08-03T00:07:21;99727.84;;;26.17;38.71
51249;BME280;39642;47.556;18.728;2022-08-03T00:09:47;99727.00;;;26.17;38.71
51249;BME280;39642;47.556;18.728;2022-08-03T00:12:13;99735.84;;;26.17;38.73
51249;BME280;39642;47.556;18.728;2022-08-03T00:14:39;99735.00;;;26.17;38.73
51249;BME280;39642;47.556;18.728;2022-08-03T00:17:05;99734.16;;;26.16;38.76
51249;BME280;39642;47.556;18.728;2022-08-03T00:19:31;99731.59;;;26.15;38.79
51249;BME280;39642;47.556;18.728;2022-08-03T00:21:57;99736.84;;;26.16;38.81
51249;BME280;39642;47.556;18.728;2022-08-03T00:24:23;99728.09;;;26.14;38.83
51249;BME280;39642;47.556;18.728;2022-08-03T00:26:49;99730.78;;;26.14;38.80
51249;BME280;39642;47.556;18.728;2022-08-03T00:29:15;99733.28;;;26.16;38.81
51249;BME280;39642;47.556;18.728;2022-08-03T00:31:41;99728.22;;;26.13;38.84
51249;BME280;39642;47.556;18.728;2022-08-03T00:34:06;99736.09;;;26.14;38.84
51249;BME280;39642;47.556;18.728;2022-08-03T00:36:32;99736.09;;;26.14;38.86
51249;BME280;39642;47.556;18.728;2022-08-03T00:38:58;99735.25;;;26.14;38.78
51249;BME280;39642;47.556;18.728;2022-08-03T00:41:24;99736.09;;;26.14;38.87
51249;BME280;39642;47.556;18.728;2022-08-03T00:43:50;99731.72;;;26.13;38.85
51249;BME280;39642;47.556;18.728;2022-08-03T00:46:16;99742.41;;;26.13;38.88
51249;BME280;39642;47.556;18.728;2022-08-03T00:48:42;99738.06;;;26.12;38.89
51249;BME280;39642;47.556;18.728;2022-08-03T00:51:08;99739.84;;;26.12;38.86
51249;BME280;39642;47.556;18.728;2022-08-03T00:53:34;99731.00;;;26.11;38.83
51249;BME280;39642;47.556;18.728;2022-08-03T00:56:01;99725.66;;;26.11;38.91
51249;BME280;39642;47.556;18.728;2022-08-03T00:58:27;99731.00;;;26.11;38.90
51249;BME280;39642;47.556;18.728;2022-08-03T01:00:53;99727.37;;;26.12;38.96
51249;BME280;39642;47.556;18.728;2022-08-03T01:03:19;99731.00;;;26.11;38.95
51249;BME280;39642;47.556;18.728;2022-08-03T01:08:21;99731.00;;;26.11;38.92
51249;BME280;39642;47.556;18.728;2022-08-03T01:21:25;99736.59;;;26.08;39.01
51249;BME280;39642;47.556;18.728;2022-08-03T01:29:03;99736.59;;;26.08;39.12
51249;BME280;39642;47.556;18.728;2022-08-03T01:31:45;99737.44;;;26.09;39.11
51249;BME280;39642;47.556;18.728;2022-08-03T01:34:14;99744.63;;;26.08;39.15
51249;BME280;39642;47.556;18.728;2022-08-03T01:36:43;99734.91;;;26.07;39.21
51249;BME280;39642;47.556;18.728;2022-08-03T01:39:14;99741.94;;;26.08;39.22
51249;BME280;39642;47.556;18.728;2022-08-03T01:41:48;99734.06;;;26.07;39.29
51249;BME280;39642;47.556;18.728;2022-08-03T01:44:15;99735.78;;;26.08;39.28
51249;BME280;39642;47.556;18.728;2022-08-03T01:46:42;99735.78;;;26.08;39.29
51249;BME280;39642;47.556;18.728;2022-08-03T01:49:10;99736.59;;;26.08;39.32
51249;BME280;39642;47.556;18.728;2022-08-03T01:51:38;99734.91;;;26.07;39.43
51249;BME280;39642;47.556;18.728;2022-08-03T01:54:07;99728.72;;;26.07;39.49
51249;BME280;39642;47.556;18.728;2022-08-03T01:56:35;99734.91;;;26.07;39.53
51249;BME280;39642;47.556;18.728;2022-08-03T01:59:03;99733.09;;;26.08;39.59
51249;BME280;39642;47.556;18.728;2022-08-03T02:01:32;99727.88;;;26.06;39.63
51249;BME280;39642;47.556;18.728;2022-08-03T02:04:00;99733.22;;;26.06;39.66
51249;BME280;39642;47.556;18.728;2022-08-03T02:06:29;99734.91;;;26.07;39.69
51249;BME280;39642;47.556;18.728;2022-08-03T02:08:58;99731.38;;;26.07;39.78
51249;BME280;39642;47.556;18.728;2022-08-03T02:11:26;99737.72;;;26.06;39.81
51249;BME280;39642;47.556;18.728;2022-08-03T02:13:53;99730.66;;;26.05;39.86
51249;BME280;39642;47.556;18.728;2022-08-03T02:16:21;99734.91;;;26.07;39.94
51249;BME280;39642;47.556;18.728;2022-08-03T02:18:47;99731.53;;;26.05;39.95
51249;BME280;39642;47.556;18.728;2022-08-03T02:21:14;99728.88;;;26.05;40.03
51249;BME280;39642;47.556;18.728;2022-08-03T02:23:40;99731.53;;;26.05;40.05
51249;BME280;39642;47.556;18.728;2022-08-03T02:26:11;99729.72;;;26.06;40.08
51249;BME280;39642;47.556;18.728;2022-08-03T02:28:42;99735.88;;;26.06;40.11
51249;BME280;39642;47.556;18.728;2022-08-03T02:31:19;99729.72;;;26.06;40.17
51249;BME280;39642;47.556;18.728;2022-08-03T02:33:50;99738.56;;;26.06;40.22
51249;BME280;39642;47.556;18.728;2022-08-03T02:36:22;99732.38;;;26.06;40.23
51249;BME280;39642;47.556;18.728;2022-08-03T02:38:53;99738.56;;;26.06;40.27
51249;BME280;39642;47.556;18.728;2022-08-03T02:41:23;99734.06;;;26.07;40.32
51249;BME280;39642;47.556;18.728;2022-08-03T02:43:54;99728.72;;;26.07;40.33
51249;BME280;39642;47.556;18.728;2022-08-03T02:46:23;99730.56;;;26.06;40.39
51249;BME280;39642;47.556;18.728;2022-08-03T02:48:51;99735.88;;;26.06;40.44
51249;BME280;39642;47.556;18.728;2022-08-03T02:51:19;99738.56;;;26.06;40.47
51249;BME280;39642;47.556;18.728;2022-08-03T02:53:46;99737.72;;;26.06;40.51
51249;BME280;39642;47.556;18.728;2022-08-03T02:56:13;99743.06;;;26.06;40.60
51249;BME280;39642;47.556;18.728;2022-08-03T02:58:42;99734.22;;;26.05;40.65
51249;BME280;39642;47.556;18.728;2022-08-03T03:01:10;99736.88;;;26.05;40.67
51249;BME280;39642;47.556;18.728;2022-08-03T03:03:37;99739.53;;;26.05;40.69
51249;BME280;39642;47.556;18.728;2022-08-03T03:06:05;99729.81;;;26.04;40.75
51249;BME280;39642;47.556;18.728;2022-08-03T03:08:32;99732.38;;;26.06;40.79
51249;BME280;39642;47.556;18.728;2022-08-03T03:10:59;99740.38;;;26.06;40.85
51249;BME280;39642;47.556;18.728;2022-08-03T03:13:28;99736.88;;;26.05;40.86
51249;BME280;39642;47.556;18.728;2022-08-03T03:15:56;99741.34;;;26.05;40.93
51249;BME280;39642;47.556;18.728;2022-08-03T03:18:24;99735.16;;;26.04;40.99
51249;BME280;39642;47.556;18.728;2022-08-03T03:20:52;99740.50;;;26.04;41.02
51249;BME280;39642;47.556;18.728;2022-08-03T03:23:21;99742.34;;;26.04;41.08
51249;BME280;39642;47.556;18.728;2022-08-03T03:25:48;99736.16;;;26.03;41.05
51249;BME280;39642;47.556;18.728;2022-08-03T03:28:14;99738.69;;;26.05;41.15
51249;BME280;39642;47.556;18.728;2022-08-03T03:30:41;99737.94;;;26.03;41.17
51249;BME280;39642;47.556;18.728;2022-08-03T03:33:07;99732.63;;;26.03;41.23
51249;BME280;39642;47.556;18.728;2022-08-03T03:35:33;99733.47;;;26.03;41.22
51249;BME280;39642;47.556;18.728;2022-08-03T03:37:59;99744.16;;;26.03;41.26
51249;BME280;39642;47.556;18.728;2022-08-03T03:40:25;99735.28;;;26.03;41.30
51249;BME280;39642;47.556;18.728;2022-08-03T03:42:52;99734.31;;;26.04;41.34
51249;BME280;39642;47.556;18.728;2022-08-03T03:45:18;99744.16;;;26.03;41.37
51249;BME280;39642;47.556;18.728;2022-08-03T03:47:45;99737.94;;;26.03;41.40
51249;BME280;39642;47.556;18.728;2022-08-03T03:50:11;99742.44;;;26.02;41.45
51249;BME280;39642;47.556;18.728;2022-08-03T03:52:37;99743.28;;;26.03;41.50
51249;BME280;39642;47.556;18.728;2022-08-03T03:55:03;99739.78;;;26.02;41.53
51249;BME280;39642;47.556;18.728;2022-08-03T03:57:29;99745.12;;;26.02;41.56
51249;BME280;39642;47.556;18.728;2022-08-03T03:59:55;99742.44;;;26.02;41.60
51249;BME280;39642;47.556;18.728;2022-08-03T04:02:21;99741.59;;;26.02;41.66
51249;BME280;39642;47.556;18.728;2022-08-03T04:04:47;99746.81;;;26.03;41.69
51249;BME280;39642;47.556;18.728;2022-08-03T04:07:49;99753.12;;;26.02;41.72
51249;BME280;39642;47.556;18.728;2022-08-03T04:10:41;99760.16;;;26.03;41.79
51249;BME280;39642;47.556;18.728;2022-08-03T04:13:24;99753.00;;;26.04;41.79
51249;BME280;39642;47.556;18.728;2022-08-03T04:15:54;99760.16;;;26.03;41.83
51249;BME280;39642;47.556;18.728;2022-08-03T04:18:21;99764.50;;;26.04;41.87
51249;BME280;39642;47.556;18.728;2022-08-03T04:20:49;99770.84;;;26.03;41.97
51249;BME280;39642;47.556;18.728;2022-08-03T04:23:20;99765.50;;;26.03;41.98
51249;BME280;39642;47.556;18.728;2022-08-03T04:25:48;99767.19;;;26.04;41.98
51249;BME280;39642;47.556;18.728;2022-08-03T04:28:15;99766.34;;;26.04;42.01
51249;BME280;39642;47.556;18.728;2022-08-03T04:30:44;99776.19;;;26.03;42.09
51249;BME280;39642;47.556;18.728;2022-08-03T04:33:13;99777.84;;;26.04;42.12
51249;BME280;39642;47.556;18.728;2022-08-03T04:35:42;99781.50;;;26.03;42.17
51249;BME280;39642;47.556;18.728;2022-08-03T04:38:12;99777.84;;;26.04;42.17
51249;BME280;39642;47.556;18.728;2022-08-03T04:40:40;99781.38;;;26.05;42.19
51249;BME280;39642;47.556;18.728;2022-08-03T04:43:09;99785.75;;;26.06;42.21
51249;BME280;39642;47.556;18.728;2022-08-03T04:45:36;99782.25;;;26.05;42.26
51249;BME280;39642;47.556;18.728;2022-08-03T04:48:03;99791.09;;;26.06;42.27
51249;BME280;39642;47.556;18.728;2022-08-03T04:50:29;99788.41;;;26.06;42.28
51249;BME280;39642;47.556;18.728;2022-08-03T04:52:55;99793.59;;;26.07;42.29
51249;BME280;39642;47.556;18.728;2022-08-03T04:55:32;99802.47;;;26.08;42.31
51249;BME280;39642;47.556;18.728;2022-08-03T04:58:00;99806.94;;;26.07;42.37
51249;BME280;39642;47.556;18.728;2022-08-03T05:00:27;99815.81;;;26.08;42.37
51249;BME280;39642;47.556;18.728;2022-08-03T05:02:53;99809.63;;;26.07;42.46
51249;BME280;39642;47.556;18.728;2022-08-03T05:05:21;99808.78;;;26.07;42.47
51249;BME280;39642;47.556;18.728;2022-08-03T05:07:47;99814.12;;;26.07;42.45
51249;BME280;39642;47.556;18.728;2022-08-03T05:10:16;99814.12;;;26.07;42.44
51249;BME280;39642;47.556;18.728;2022-08-03T05:12:44;99809.63;;;26.07;42.45
51249;BME280;39642;47.556;18.728;2022-08-03T05:15:10;99812.28;;;26.07;42.60
51249;BME280;39642;47.556;18.728;2022-08-03T05:17:36;99816.66;;;26.08;42.51
51249;BME280;39642;47.556;18.728;2022-08-03T05:20:03;99817.50;;;26.09;42.50
51249;BME280;39642;47.556;18.728;2022-08-03T05:22:29;99821.88;;;26.10;42.57
51249;BME280;39642;47.556;18.728;2022-08-03T05:24:55;99825.63;;;26.07;42.71
51249;BME280;39642;47.556;18.728;2022-08-03T05:27:21;99825.16;;;26.02;43.00
51249;BME280;39642;47.556;18.728;2022-08-03T05:29:48;99823.47;;;26.01;42.82
51249;BME280;39642;47.556;18.728;2022-08-03T05:32:15;99824.22;;;26.03;42.76
51249;BME280;39642;47.556;18.728;2022-08-03T05:34:41;99827.59;;;26.05;42.73
51249;BME280;39642;47.556;18.728;2022-08-03T05:37:07;99830.97;;;26.07;42.72
51249;BME280;39642;47.556;18.728;2022-08-03T05:39:33;99830.12;;;26.07;42.75
51249;BME280;39642;47.556;18.728;2022-08-03T05:41:59;99829.16;;;26.08;42.66
51249;BME280;39642;47.556;18.728;2022-08-03T05:44:25;99833.50;;;26.09;42.67
51249;BME280;39642;47.556;18.728;2022-08-03T05:46:51;99837.75;;;26.11;42.62
51249;BME280;39642;47.556;18.728;2022-08-03T05:49:18;99837.75;;;26.11;42.63
51249;BME280;39642;47.556;18.728;2022-08-03T05:51:44;99841.25;;;26.12;42.64
51249;BME280;39642;47.556;18.728;2022-08-03T05:54:10;99834.13;;;26.12;42.65
51249;BME280;39642;47.556;18.728;2022-08-03T05:56:36;99833.13;;;26.13;42.65
51249;BME280;39642;47.556;18.728;2022-08-03T05:59:02;99834.84;;;26.14;42.61
51249;BME280;39642;47.556;18.728;2022-08-03T06:01:28;99843.69;;;26.15;42.64
51249;BME280;39642;47.556;18.728;2022-08-03T06:03:57;99838.38;;;26.15;42.67
51249;BME280;39642;47.556;18.728;2022-08-03T06:06:22;99835.69;;;26.15;42.68
51249;BME280;39642;47.556;18.728;2022-08-03T06:08:49;99838.25;;;26.16;42.69
51249;BME280;39642;47.556;18.728;2022-08-03T06:11:15;99841.75;;;26.17;42.69
51249;BME280;39642;47.556;18.728;2022-08-03T06:13:41;99840.78;;;26.18;42.72
51249;BME280;39642;47.556;18.728;2022-08-03T06:16:07;99842.59;;;26.17;42.74
51249;BME280;39642;47.556;18.728;2022-08-03T06:18:34;99845.16;;;26.19;42.75
51249;BME280;39642;47.556;18.728;2022-08-03T06:21:00;99840.66;;;26.20;42.78
51249;BME280;39642;47.556;18.728;2022-08-03T06:23:26;99843.31;;;26.20;42.83
51249;BME280;39642;47.556;18.728;2022-08-03T06:25:52;99843.31;;;26.20;42.87
51249;BME280;39642;47.556;18.728;2022-08-03T06:28:18;99838.81;;;26.20;42.85
51249;BME280;39642;47.556;18.728;2022-08-03T06:30:44;99847.69;;;26.21;42.86
51249;BME280;39642;47.556;18.728;2022-08-03T06:33:10;99849.37;;;26.22;42.87
51249;BME280;39642;47.556;18.728;2022-08-03T06:35:36;99848.41;;;26.23;42.88
51249;BME280;39642;47.556;18.728;2022-08-03T06:38:02;99849.28;;;26.23;42.90
51249;BME280;39642;47.556;18.728;2022-08-03T06:40:28;99853.63;;;26.24;42.90
51249;BME280;39642;47.556;18.728;2022-08-03T06:43:00;99849.97;;;26.25;42.93
51249;BME280;39642;47.556;18.728;2022-08-03T06:45:27;99853.50;;;26.26;42.96
51249;BME280;39642;47.556;18.728;2022-08-03T06:48:02;99851.69;;;26.26;42.97
51249;BME280;39642;47.556;18.728;2022-08-03T06:50:28;99853.34;;;26.27;42.97
51249;BME280;39642;47.556;18.728;2022-08-03T06:52:54;99850.69;;;26.27;42.99
51249;BME280;39642;47.556;18.728;2022-08-03T06:55:20;99855.06;;;26.28;43.02
51249;BME280;39642;47.556;18.728;2022-08-03T06:57:46;99849.72;;;26.28;43.00
51249;BME280;39642;47.556;18.728;2022-08-03T07:00:12;99852.25;;;26.30;43.02
51249;BME280;39642;47.556;18.728;2022-08-03T07:02:39;99853.97;;;26.31;43.02
51249;BME280;39642;47.556;18.728;2022-08-03T07:05:06;99853.97;;;26.31;43.02
51249;BME280;39642;47.556;18.728;2022-08-03T07:07:32;99857.38;;;26.33;43.02
51249;BME280;39642;47.556;18.728;2022-08-03T07:09:58;99856.37;;;26.34;43.02
51249;BME280;39642;47.556;18.728;2022-08-03T07:12:28;99854.56;;;26.34;43.05
51249;BME280;39642;47.556;18.728;2022-08-03T07:14:55;99858.81;;;26.37;43.03
51249;BME280;39642;47.556;18.728;2022-08-03T07:17:21;99858.81;;;26.37;43.11
51249;BME280;39642;47.556;18.728;2022-08-03T07:19:47;99857.09;;;26.36;43.07
51249;BME280;39642;47.556;18.728;2022-08-03T07:22:13;99865.00;;;26.37;43.07
51249;BME280;39642;47.556;18.728;2022-08-03T07:24:39;99856.87;;;26.39;43.04
51249;BME280;39642;47.556;18.728;2022-08-03T07:27:07;99863.87;;;26.40;42.99
51249;BME280;39642;47.556;18.728;2022-08-03T07:29:34;99862.06;;;26.41;42.95
51249;BME280;39642;47.556;18.728;2022-08-03T07:32:01;99859.28;;;26.42;42.99
51249;BME280;39642;47.556;18.728;2022-08-03T07:34:27;99856.59;;;26.42;42.89
51249;BME280;39642;47.556;18.728;2022-08-03T07:36:53;99856.50;;;26.44;42.96
51249;BME280;39642;47.556;18.728;2022-08-03T07:39:19;99846.75;;;26.43;42.99
51249;BME280;39642;47.556;18.728;2022-08-03T07:41:45;99852.09;;;26.43;42.97
51249;BME280;39642;47.556;18.728;2022-08-03T07:44:11;99850.28;;;26.43;42.80
51249;BME280;39642;47.556;18.728;2022-08-03T07:46:37;99855.50;;;26.45;42.89
51249;BME280;39642;47.556;18.728;2022-08-03T07:49:03;99853.66;;;26.45;42.91
51249;BME280;39642;47.556;18.728;2022-08-03T07:51:29;99850.03;;;26.46;42.88
51249;BME280;39642;47.556;18.728;2022-08-03T07:53:55;99849.06;;;26.47;42.80
51249;BME280;39642;47.556;18.728;2022-08-03T07:56:23;99846.25;;;26.49;42.83
51249;BME280;39642;47.556;18.728;2022-08-03T07:58:53;99845.44;;;26.48;42.85
51249;BME280;39642;47.556;18.728;2022-08-03T08:01:20;99840.91;;;26.49;43.01
51249;BME280;39642;47.556;18.728;2022-08-03T08:03:47;99842.59;;;26.50;42.99
51249;BME280;39642;47.556;18.728;2022-08-03T08:06:14;99845.16;;;26.51;42.86
51249;BME280;39642;47.556;18.728;2022-08-03T08:08:40;99841.50;;;26.52;42.82
51249;BME280;39642;47.556;18.728;2022-08-03T08:11:06;99832.53;;;26.53;42.94
51249;BME280;39642;47.556;18.728;2022-08-03T08:13:32;99838.72;;;26.54;42.90
51249;BME280;39642;47.556;18.728;2022-08-03T08:15:58;99838.63;;;26.55;42.68
51249;BME280;39642;47.556;18.728;2022-08-03T08:18:24;99843.97;;;26.55;42.89
51249;BME280;39642;47.556;18.728;2022-08-03T08:20:50;99849.41;;;26.54;43.02
51249;BME280;39642;47.556;18.728;2022-08-03T08:23:16;99849.41;;;26.54;42.90
51249;BME280;39642;47.556;18.728;2022-08-03T08:25:49;99845.66;;;26.56;43.00
51249;BME280;39642;47.556;18.728;2022-08-03T08:28:19;99846.53;;;26.57;42.91
51249;BME280;39642;47.556;18.728;2022-08-03T08:30:46;99843.69;;;26.58;42.88
51249;BME280;39642;47.556;18.728;2022-08-03T08:33:12;99847.22;;;26.59;42.93
51249;BME280;39642;47.556;18.728;2022-08-03T08:35:39;99842.75;;;26.60;42.94
51249;BME280;39642;47.556;18.728;2022-08-03T08:38:06;99849.75;;;26.61;42.99
51249;BME280;39642;47.556;18.728;2022-08-03T08:40:32;99840.78;;;26.62;42.83
51249;BME280;39642;47.556;18.728;2022-08-03T08:42:58;99838.97;;;26.62;42.81
51249;BME280;39642;47.556;18.728;2022-08-03T08:45:25;99837.84;;;26.65;42.84
51249;BME280;39642;47.556;18.728;2022-08-03T08:47:54;99834.34;;;26.64;43.02
51249;BME280;39642;47.556;18.728;2022-08-03T08:50:21;99840.53;;;26.65;42.94
51249;BME280;39642;47.556;18.728;2022-08-03T08:52:49;99836.03;;;26.65;42.95
51249;BME280;39642;47.556;18.728;2022-08-03T08:55:20;99836.03;;;26.65;43.24
51249;BME280;39642;47.556;18.728;2022-08-03T08:57:48;99835.91;;;26.67;42.94
51249;BME280;39642;47.556;18.728;2022-08-03T09:00:15;99840.25;;;26.68;42.87
51249;BME280;39642;47.556;18.728;2022-08-03T09:02:42;99832.13;;;26.69;42.73
51249;BME280;39642;47.556;18.728;2022-08-03T09:05:17;99834.69;;;26.71;42.79
51249;BME280;39642;47.556;18.728;2022-08-03T09:07:45;99832.00;;;26.71;42.78
51249;BME280;39642;47.556;18.728;2022-08-03T09:10:13;99833.69;;;26.72;42.70
51249;BME280;39642;47.556;18.728;2022-08-03T09:12:44;99837.19;;;26.72;42.74
51249;BME280;39642;47.556;18.728;2022-08-03T09:17:42;99836.34;;;26.72;42.67
51249;BME280;39642;47.556;18.728;2022-08-03T09:20:09;99832.84;;;26.71;42.63
51249;BME280;39642;47.556;18.728;2022-08-03T09:22:35;99829.34;;;26.71;42.65
51249;BME280;39642;47.556;18.728;2022-08-03T09:25:04;99830.19;;;26.71;42.68
51249;BME280;39642;47.556;18.728;2022-08-03T09:27:47;99832.00;;;26.71;42.67
51249;BME280;39642;47.556;18.728;2022-08-03T09:30:17;99828.47;;;26.70;42.75
51249;BME280;39642;47.556;18.728;2022-08-03T09:32:44;99830.28;;;26.70;42.78
51249;BME280;39642;47.556;18.728;2022-08-03T09:35:12;99821.44;;;26.69;42.71
51249;BME280;39642;47.556;18.728;2022-08-03T09:37:38;99822.28;;;26.70;42.58
51249;BME280;39642;47.556;18.728;2022-08-03T09:40:05;99822.28;;;26.70;42.73
51249;BME280;39642;47.556;18.728;2022-08-03T09:42:32;99813.44;;;26.69;42.88
51249;BME280;39642;47.556;18.728;2022-08-03T09:45:03;99816.94;;;26.70;42.70
51249;BME280;39642;47.556;18.728;2022-08-03T09:47:32;99817.78;;;26.70;42.63
51249;BME280;39642;47.556;18.728;2022-08-03T09:50:00;99815.97;;;26.71;42.77
51249;BME280;39642;47.556;18.728;2022-08-03T09:52:36;99817.78;;;26.70;42.75
51249;BME280;39642;47.556;18.728;2022-08-03T09:55:11;99815.97;;;26.71;42.77
51249;BME280;39642;47.556;18.728;2022-08-03T09:57:38;99809.75;;;26.70;42.77
51249;BME280;39642;47.556;18.728;2022-08-03T10:00:15;99805.28;;;26.71;42.64
51249;BME280;39642;47.556;18.728;2022-08-03T10:02:43;99803.47;;;26.71;42.52
51249;BME280;39642;47.556;18.728;2022-08-03T10:05:11;99805.28;;;26.71;42.58
51249;BME280;39642;47.556;18.728;2022-08-03T10:07:48;99804.41;;;26.70;42.64
51249;BME280;39642;47.556;18.728;2022-08-03T10:10:15;99798.97;;;26.72;42.64
51249;BME280;39642;47.556;18.728;2022-08-03T10:12:42;99795.44;;;26.71;42.60
51249;BME280;39642;47.556;18.728;2022-08-03T10:15:09;99798.97;;;26.72;42.53
51249;BME280;39642;47.556;18.728;2022-08-03T10:17:36;99798.97;;;26.72;42.49
51249;BME280;39642;47.556;18.728;2022-08-03T10:20:04;99798.97;;;26.72;42.45
51249;BME280;39642;47.556;18.728;2022-08-03T10:22:33;99794.44;;;26.72;42.42
51249;BME280;39642;47.556;18.728;2022-08-03T10:25:08;99783.78;;;26.72;42.52
51249;BME280;39642;47.556;18.728;2022-08-03T10:27:40;99783.78;;;26.72;42.55
51249;BME280;39642;47.556;18.728;2022-08-03T10:30:10;99781.97;;;26.73;42.49
51249;BME280;39642;47.556;18.728;2022-08-03T10:32:47;99776.47;;;26.74;42.45
51249;BME280;39642;47.556;18.728;2022-08-03T10:35:18;99773.97;;;26.73;42.48
51249;BME280;39642;47.556;18.728;2022-08-03T10:38:25;99767.63;;;26.74;42.45
51249;BME280;39642;47.556;18.728;2022-08-03T10:40:43;99765.06;;;26.72;42.48
51249;BME280;39642;47.556;18.728;2022-08-03T10:43:18;99774.66;;;26.75;42.52
51249;BME280;39642;47.556;18.728;2022-08-03T10:45:44;99770.03;;;26.77;42.47
51249;BME280;39642;47.556;18.728;2022-08-03T10:48:11;99773.41;;;26.79;42.32
51249;BME280;39642;47.556;18.728;2022-08-03T10:50:38;99769.06;;;26.78;42.30
51249;BME280;39642;47.556;18.728;2022-08-03T10:53:05;99764.56;;;26.78;42.27
51249;BME280;39642;47.556;18.728;2022-08-03T10:55:52;99763.72;;;26.78;42.25
51249;BME280;39642;47.556;18.728;2022-08-03T11:01:10;99764.94;;;26.74;42.32
51249;BME280;39642;47.556;18.728;2022-08-03T11:06:22;99755.38;;;26.71;42.33
51249;BME280;39642;47.556;18.728;2022-08-03T11:11:39;99748.31;;;26.70;42.34
51249;BME280;39642;47.556;18.728;2022-08-03T11:14:07;99746.66;;;26.69;42.37
51249;BME280;39642;47.556;18.728;2022-08-03T11:16:37;99748.47;;;26.69;42.39
51249;BME280;39642;47.556;18.728;2022-08-03T11:19:06;99746.78;;;26.68;42.39
51249;BME280;39642;47.556;18.728;2022-08-03T11:27:30;99743.25;;;26.67;42.40
51249;BME280;39642;47.556;18.728;2022-08-03T11:30:05;99741.59;;;26.66;42.38
51249;BME280;39642;47.556;18.728;2022-08-03T11:37:34;99737.06;;;26.67;42.42
51249;BME280;39642;47.556;18.728;2022-08-03T11:40:00;99743.38;;;26.66;42.41
51249;BME280;39642;47.556;18.728;2022-08-03T11:44:55;99743.38;;;26.66;42.41
51249;BME280;39642;47.556;18.728;2022-08-03T11:47:25;99737.06;;;26.67;42.41
51249;BME280;39642;47.556;18.728;2022-08-03T11:49:57;99739.88;;;26.65;42.41
51249;BME280;39642;47.556;18.728;2022-08-03T11:52:26;99741.59;;;26.66;42.40
51249;BME280;39642;47.556;18.728;2022-08-03T11:54:53;99731.84;;;26.65;42.41
51249;BME280;39642;47.556;18.728;2022-08-03T11:57:33;99732.84;;;26.64;42.40
51249;BME280;39642;47.556;18.728;2022-08-03T11:59:59;99728.34;;;26.65;42.40
51249;BME280;39642;47.556;18.728;2022-08-03T12:02:26;99734.53;;;26.65;42.40
51249;BME280;39642;47.556;18.728;2022-08-03T12:04:56;99734.53;;;26.65;42.36
51249;BME280;39642;47.556;18.728;2022-08-03T12:07:25;99725.56;;;26.66;42.32
51249;BME280;39642;47.556;18.728;2022-08-03T12:10:13;99726.50;;;26.65;42.34
51249;BME280;39642;47.556;18.728;2022-08-03T12:12:40;99729.19;;;26.65;42.35
51249;BME280;39642;47.556;18.728;2022-08-03T12:15:08;99718.50;;;26.65;42.34
51249;BME280;39642;47.556;18.728;2022-08-03T12:17:36;99718.50;;;26.65;42.34
51249;BME280;39642;47.556;18.728;2022-08-03T12:20:04;99714.88;;;26.66;42.32
51249;BME280;39642;47.556;18.728;2022-08-03T12:22:37;99721.06;;;26.67;42.31
51249;BME280;39642;47.556;18.728;2022-08-03T12:25:07;99713.03;;;26.67;42.31
51249;BME280;39642;47.556;18.728;2022-08-03T12:27:33;99710.38;;;26.67;42.31
51249;BME280;39642;47.556;18.728;2022-08-03T12:30:00;99709.38;;;26.68;42.24
51249;BME280;39642;47.556;18.728;2022-08-03T12:32:28;99707.56;;;26.68;42.24
51249;BME280;39642;47.556;18.728;2022-08-03T12:34:55;99698.56;;;26.69;42.12
51249;BME280;39642;47.556;18.728;2022-08-03T12:37:25;99702.78;;;26.72;41.95
51249;BME280;39642;47.556;18.728;2022-08-03T12:39:56;99696.09;;;26.77;41.90
51249;BME280;39642;47.556;18.728;2022-08-03T12:42:30;99692.44;;;26.78;41.67
51249;BME280;39642;47.556;18.728;2022-08-03T12:44:56;99698.38;;;26.82;41.36
51249;BME280;39642;47.556;18.728;2022-08-03T12:47:22;99684.44;;;26.88;40.86
51249;BME280;39642;47.556;18.728;2022-08-03T12:49:52;99690.97;;;26.95;40.64
51249;BME280;39642;47.556;18.728;2022-08-03T12:52:20;99688.03;;;26.98;40.65
51249;BME280;39642;47.556;18.728;2022-08-03T12:54:57;99695.22;;;26.98;40.72
51249;BME280;39642;47.556;18.728;2022-08-03T12:57:23;99695.31;;;26.96;40.98
51249;BME280;39642;47.556;18.728;2022-08-03T12:59:49;99698.13;;;26.95;40.87
51249;BME280;39642;47.556;18.728;2022-08-03T13:02:22;99692.94;;;26.93;41.34
51249;BME280;39642;47.556;18.728;2022-08-03T13:04:49;99690.50;;;26.90;41.33
51249;BME280;39642;47.556;18.728;2022-08-03T13:07:17;99682.66;;;26.89;41.25
51249;BME280;39642;47.556;18.728;2022-08-03T13:12:20;99680.94;;;26.88;41.61
51249;BME280;39642;47.556;18.728;2022-08-03T13:14:50;99682.91;;;26.86;41.70
51249;BME280;39642;47.556;18.728;2022-08-03T13:17:17;99676.13;;;26.82;41.51
51249;BME280;39642;47.556;18.728;2022-08-03T13:19:44;99683.31;;;26.81;41.64
51249;BME280;39642;47.556;18.728;2022-08-03T13:22:21;99675.28;;;26.81;41.48
51249;BME280;39642;47.556;18.728;2022-08-03T13:24:50;99671.66;;;26.82;41.43
51249;BME280;39642;47.556;18.728;2022-08-03T13:27:17;99670.66;;;26.83;41.29
51249;BME280;39642;47.556;18.728;2022-08-03T13:29:43;99662.38;;;26.86;41.05
51249;BME280;39642;47.556;18.728;2022-08-03T13:32:09;99660.28;;;26.90;41.05
51249;BME280;39642;47.556;18.728;2022-08-03T13:34:36;99657.47;;;26.91;41.08
51249;BME280;39642;47.556;18.728;2022-08-03T13:37:02;99658.19;;;26.93;40.91
51249;BME280;39642;47.556;18.728;2022-08-03T13:39:28;99658.63;;;26.98;40.79